Ayacucho, Argentina
Current Conditions -  °F | °C
As of 8:00 AM on Friday 28 Nov 2014 (Local Time) from SAZM Reporting Station
Broken Clouds Broken Clouds  
Wind Chill: 63°   Ceiling: 8000
Heat Index: 63°   Visibility: 6mi
Dew Point: 59°   Wind: 7mph
Humidity: 88%   Direction: 320°NW
Pressure: 29.97"   Gusts: NA
Location:  37.15°S, 58.48°W
Report Text: SAZM 281100Z 32006KT 9999 FEW025 BKN080BKN200 17/15 Q1015
Loading
Personal Weather Stations






























Interactive Weather Map New forecast layout! Learn more

10-Day Weather Forecast

Advertisements
Track Severe Weather on mobile